Flight Track Log - Related Links

Times and Time Zones

All times are in EDT time to prevent confusion due to time zone crossing. See the EJA922 flight status page for this flight to view local times or setup timezone preferences in your user account.

Time Position Orientation Groundspeed Altitude Reporting Facility
EDT Latitude Longitude Course Direction KTS MPH feet Rate Location/Type
Wed 04:08:28 PM 34.9614 -82.1733 360° North 238 274 6,600  Level Atlanta Center
Wed 04:09:28 PM 35.0253 -82.1186 35° Northeast 268 308 9,500 1,750 Climbing Atlanta Center
Wed 04:10:28 PM 35.1014 -82.0561 34° Northeast 303 349 10,100 300 Climbing Atlanta Center
Wed 04:11:28 PM 35.1897 -81.9803 35° Northeast 362 417 10,100 600 Level Atlanta Center
Wed 04:12:28 PM 35.3081 -81.9417 15° North 381 438 11,300 1,450 Climbing Atlanta Center
Wed 04:13:00 PM 35.4127 -81.9333 North  Level FlightAware Approximate
Wed 04:13:28 PM 35.4189 -81.9464 358° North 388 447 13,000  Level Atlanta Center
Wed 04:14:00 PM 35.5254 -81.9333 360° North  Level FlightAware Approximate
Wed 04:14:28 PM 35.5333 -81.9358 North 400 460 13,100  Level Atlanta Center
Wed 04:15:28 PM 35.6172 -81.8367 44° Northeast 401 461 13,100 -50 Level Atlanta Center
Wed 04:16:28 PM 35.6625 -81.6975 68° East 412 474 13,000 -50 Descending Atlanta Center
Wed 04:17:28 PM 35.7078 -81.5581 68° East 419 482 13,000  Level Atlanta Center
Wed 04:18:28 PM 35.7469 -81.4367 68° East 427 491 13,000  Level Atlanta Center
Wed 04:19:28 PM 35.7919 -81.2969 68° East 432 497 13,000  Level Atlanta Center
Wed 04:20:28 PM 35.8367 -81.1597 68° East 432 497 13,000  Level Atlanta Center
Wed 04:21:28 PM 35.8853 -81.0092 68° East 432 497 13,000 -750 Level Atlanta Center
Wed 04:22:28 PM 35.9258 -80.8744 70° East 432 497 11,500 -1,500 Descending Atlanta Center
Wed 04:23:28 PM 35.9622 -80.7575 69° East 402 463 10,000 -1,550 Descending Atlanta Center
Wed 04:24:28 PM 35.9950 -80.6614 67° East 331 381 8,400 -1,500 Descending Atlanta Center
Wed 04:25:28 PM 36.0200 -80.5781 70° East 298 343 7,000 -700 Descending Atlanta Center
Wed 04:26:28 PM 36.0486 -80.4894 68° East 285 328 7,000 -300 Level Atlanta Center
Wed 04:27:28 PM 36.0753 -80.3983 70° East 264 304 6,400 -1,250 Descending Atlanta Center
Wed 04:28:28 PM 36.0581 -80.3119 104° East 246 283 4,500 -1,550 Descending Atlanta Center
Wed 04:29:28 PM 36.0514 -80.2325 96° East 246 283 3,300 -1,300 Descending Atlanta Center
Wed 04:30:28 PM 36.0769 -80.1850 56° Northeast 177 204 1,900 -850 Descending Atlanta Center
Wed 04:31:28 PM 36.1033 -80.1608 36° Northeast 177 204 1,600 2,550 Descending Atlanta Center
Wed 04:32:28 PM 36.1228 -80.1161 62° Northeast 177 204 7,000 5,400 Climbing Atlanta Center
Wed 04:34:00 PM 36.1333 -80.2167 338° Northwest  Level FlightAware Approximate

Login

Don't have an account? Register now (free) for customized features, flight alerts, and more!